createdAt,value
2024-04-21T00:02:21.531Z,5.60
2024-04-21T00:04:49.492Z,5.62
2024-04-21T00:07:17.148Z,5.62
2024-04-21T00:09:44.973Z,5.63
2024-04-21T00:12:12.534Z,5.62
2024-04-21T00:14:40.179Z,5.62
2024-04-21T00:17:07.704Z,5.60
2024-04-21T00:19:35.474Z,5.60
2024-04-21T00:22:02.963Z,5.60
2024-04-21T00:24:31.481Z,5.59
2024-04-21T00:26:58.994Z,5.59
2024-04-21T00:29:26.508Z,5.59
2024-04-21T00:31:53.997Z,5.59
2024-04-21T00:34:21.489Z,5.60
2024-04-21T00:36:50.724Z,5.62
2024-04-21T00:39:18.296Z,5.64
2024-04-21T00:41:46.057Z,5.66
2024-04-21T00:44:13.593Z,5.69
2024-04-21T00:46:41.521Z,5.72
2024-04-21T00:49:10.434Z,5.74
2024-04-21T00:51:38.911Z,5.75
2024-04-21T00:54:07.531Z,5.77
2024-04-21T00:56:35.586Z,5.81
2024-04-21T00:59:03.604Z,5.85
2024-04-21T01:01:31.719Z,5.88
2024-04-21T01:04:00.263Z,5.91
2024-04-21T01:06:28.057Z,5.93
2024-04-21T01:08:55.618Z,5.96
2024-04-21T01:11:23.432Z,5.95
2024-04-21T01:13:51.229Z,5.95
2024-04-21T01:16:23.140Z,5.96
2024-04-21T01:18:50.699Z,5.97
2024-04-21T01:21:19.347Z,5.98
2024-04-21T01:23:46.908Z,5.99
2024-04-21T01:26:14.404Z,5.99
2024-04-21T01:28:41.833Z,5.99
2024-04-21T01:31:09.375Z,5.99
2024-04-21T01:33:36.930Z,6.00
2024-04-21T01:36:04.610Z,5.98
2024-04-21T01:38:32.220Z,5.97
2024-04-21T01:40:59.666Z,5.97
2024-04-21T01:43:27.265Z,5.97
2024-04-21T01:45:54.826Z,5.96
2024-04-21T01:48:22.412Z,5.97
2024-04-21T01:50:49.875Z,5.98
2024-04-21T01:53:17.730Z,6.00
2024-04-21T01:55:45.275Z,5.99
2024-04-21T01:58:12.893Z,6.01
2024-04-21T02:00:40.854Z,6.04
2024-04-21T02:03:08.432Z,6.04
2024-04-21T02:05:36.526Z,6.06
2024-04-21T02:08:04.363Z,6.09
2024-04-21T02:10:31.800Z,6.10
2024-04-21T02:12:59.365Z,6.11
2024-04-21T02:15:26.976Z,6.13
2024-04-21T02:17:54.510Z,6.15
2024-04-21T02:20:21.994Z,6.15
2024-04-21T02:22:49.493Z,6.15
2024-04-21T02:25:18.236Z,6.17
2024-04-21T02:27:46.216Z,6.19
2024-04-21T02:30:13.889Z,6.20
2024-04-21T02:32:41.445Z,6.21
2024-04-21T02:35:08.995Z,6.24
2024-04-21T02:37:36.539Z,6.23
2024-04-21T02:40:04.384Z,6.21
2024-04-21T02:42:31.949Z,6.19
2024-04-21T02:45:00.478Z,6.19
2024-04-21T02:47:28.076Z,6.19
2024-04-21T02:49:55.538Z,6.19
2024-04-21T02:52:23.153Z,6.20
2024-04-21T02:54:50.657Z,6.20
2024-04-21T02:57:18.352Z,6.21
2024-04-21T02:59:45.774Z,6.22
2024-04-21T03:02:13.327Z,6.23
2024-04-21T03:04:40.914Z,6.24
2024-04-21T03:07:08.596Z,6.25
2024-04-21T03:09:36.128Z,6.26
2024-04-21T03:12:03.762Z,6.26
2024-04-21T03:14:31.895Z,6.27
2024-04-21T03:16:59.453Z,6.28
2024-04-21T03:19:27.270Z,6.29
2024-04-21T03:21:55.242Z,6.29
2024-04-21T03:24:23.329Z,6.30
2024-04-21T03:26:51.137Z,6.30
2024-04-21T03:29:18.620Z,6.31
2024-04-21T03:31:46.174Z,6.31
2024-04-21T03:34:13.758Z,6.32
2024-04-21T03:36:41.295Z,6.33
2024-04-21T03:39:08.814Z,6.33
2024-04-21T03:41:36.267Z,6.31
2024-04-21T03:44:04.547Z,6.31
2024-04-21T03:46:32.076Z,6.30
2024-04-21T03:48:59.611Z,6.31
2024-04-21T03:51:27.211Z,6.32
2024-04-21T03:53:54.803Z,6.34
2024-04-21T03:56:22.304Z,6.34
2024-04-21T03:58:49.794Z,6.36
2024-04-21T04:01:17.410Z,6.38
2024-04-21T04:03:45.199Z,6.39
2024-04-21T04:06:12.747Z,6.40
2024-04-21T04:08:40.242Z,6.42
2024-04-21T04:11:07.842Z,6.45
2024-04-21T04:13:35.309Z,6.48
2024-04-21T04:16:03.003Z,6.53
2024-04-21T04:18:30.576Z,6.57
2024-04-21T04:20:58.075Z,6.62
2024-04-21T04:23:25.595Z,6.68
2024-04-21T04:25:53.127Z,6.73
2024-04-21T04:28:21.534Z,6.79
2024-04-21T04:30:49.367Z,6.84
2024-04-21T04:33:17.025Z,6.90
2024-04-21T04:35:45.535Z,6.96
2024-04-21T04:38:13.052Z,7.01
2024-04-21T04:40:40.588Z,7.05
2024-04-21T04:43:08.148Z,7.09
2024-04-21T04:45:36.391Z,7.14
2024-04-21T04:48:04.649Z,7.21
2024-04-21T04:50:32.410Z,7.27
2024-04-21T04:53:00.234Z,7.32
2024-04-21T04:55:27.904Z,7.34
2024-04-21T04:57:55.962Z,7.36
2024-04-21T05:00:23.753Z,7.38
2024-04-21T05:02:51.425Z,7.39
2024-04-21T05:05:19.212Z,7.37
2024-04-21T05:07:46.896Z,7.36
2024-04-21T05:10:15.169Z,7.37
2024-04-21T05:12:42.772Z,7.38
2024-04-21T05:15:10.337Z,7.40
2024-04-21T05:17:37.975Z,7.42
2024-04-21T05:20:06.834Z,7.44
2024-04-21T05:22:34.402Z,7.46
2024-04-21T05:25:02.040Z,7.45
2024-04-21T05:27:32.072Z,7.42
2024-04-21T05:30:00.891Z,7.39
2024-04-21T05:32:28.628Z,7.36
2024-04-21T05:34:56.248Z,7.33
2024-04-21T05:37:23.773Z,7.28
2024-04-21T05:39:52.149Z,7.20
2024-04-21T05:42:19.660Z,7.13
2024-04-21T05:44:49.578Z,7.08
2024-04-21T05:47:17.832Z,7.02
2024-04-21T05:49:46.032Z,6.97
2024-04-21T05:52:15.794Z,6.92
2024-04-21T05:54:43.491Z,6.89
2024-04-21T05:57:11.027Z,6.90
2024-04-21T05:59:38.605Z,6.91
2024-04-21T06:02:06.558Z,6.92
2024-04-21T06:04:34.239Z,6.92
2024-04-21T06:07:01.931Z,6.92
2024-04-21T06:09:29.540Z,6.93
2024-04-21T06:11:57.147Z,6.92
2024-04-21T06:14:24.648Z,6.89
2024-04-21T06:16:52.361Z,6.87
2024-04-21T06:19:21.407Z,6.84
2024-04-21T06:21:49.064Z,6.79
2024-04-21T06:24:16.681Z,6.73
2024-04-21T06:26:45.992Z,6.68
2024-04-21T06:29:15.590Z,6.65
2024-04-21T06:31:43.787Z,6.62
2024-04-21T06:34:11.523Z,6.60
2024-04-21T06:36:39.095Z,6.56
2024-04-21T06:39:06.891Z,6.53
2024-04-21T06:41:34.406Z,6.50
2024-04-21T06:44:01.926Z,6.46
2024-04-21T06:46:29.465Z,6.44
2024-04-21T06:48:57.177Z,6.42
2024-04-21T06:51:25.781Z,6.42
2024-04-21T06:53:53.332Z,6.43
2024-04-21T06:56:20.849Z,6.41
2024-04-21T06:58:48.292Z,6.36
2024-04-21T07:01:15.935Z,6.33
2024-04-21T07:03:43.749Z,6.33
2024-04-21T07:06:11.316Z,6.31
2024-04-21T07:08:38.814Z,6.29
2024-04-21T07:11:06.632Z,6.29
2024-04-21T07:13:34.343Z,6.31
2024-04-21T07:16:01.893Z,6.31
2024-04-21T07:18:29.520Z,6.33
2024-04-21T07:20:57.071Z,6.35
2024-04-21T07:23:24.584Z,6.35
2024-04-21T07:25:52.161Z,6.34
2024-04-21T07:28:19.682Z,6.32
2024-04-21T07:30:48.414Z,6.30
2024-04-21T07:33:15.968Z,6.28
2024-04-21T07:35:44.389Z,6.27
2024-04-21T07:38:11.861Z,6.24
2024-04-21T07:40:39.652Z,6.25
2024-04-21T07:43:07.126Z,6.26
2024-04-21T07:45:34.590Z,6.27
2024-04-21T07:48:02.950Z,6.27
2024-04-21T07:50:33.995Z,6.30
2024-04-21T07:53:01.462Z,6.38
2024-04-21T07:55:29.185Z,6.47
2024-04-21T07:57:56.711Z,6.55
2024-04-21T08:00:24.212Z,6.62
2024-04-21T08:02:51.748Z,6.65
2024-04-21T08:05:19.319Z,6.67
2024-04-21T08:07:46.894Z,6.67
2024-04-21T08:10:14.513Z,6.67
2024-04-21T08:12:42.001Z,6.69
2024-04-21T08:15:09.536Z,6.73
2024-04-21T08:17:37.412Z,6.78
2024-04-21T08:20:06.175Z,6.86
2024-04-21T08:22:34.292Z,6.93
2024-04-21T08:25:03.076Z,6.97
2024-04-21T08:27:30.563Z,7.01
2024-04-21T08:29:58.104Z,7.08
2024-04-21T08:32:25.747Z,7.13
2024-04-21T08:34:53.493Z,7.16
2024-04-21T08:37:24.554Z,7.16
2024-04-21T08:39:52.387Z,7.14
2024-04-21T08:42:20.013Z,7.12
2024-04-21T08:44:49.922Z,7.06
2024-04-21T08:47:17.482Z,6.99
2024-04-21T08:49:45.206Z,6.98
2024-04-21T08:52:12.734Z,7.01
2024-04-21T08:54:40.361Z,7.07
2024-04-21T08:57:08.182Z,7.13
2024-04-21T08:59:41.928Z,7.15
2024-04-21T09:02:13.345Z,7.18
2024-04-21T09:04:45.918Z,7.21
2024-04-21T09:07:14.149Z,7.20
2024-04-21T09:09:41.650Z,7.20
2024-04-21T09:12:09.299Z,7.20
2024-04-21T09:14:43.739Z,7.20
2024-04-21T09:17:11.653Z,7.14
2024-04-21T09:19:39.975Z,7.14
2024-04-21T09:22:07.569Z,7.13
2024-04-21T09:24:35.282Z,7.12
2024-04-21T09:27:02.868Z,7.13
2024-04-21T09:29:30.375Z,7.15
2024-04-21T09:31:57.990Z,7.18
2024-04-21T09:34:25.572Z,7.17
2024-04-21T09:36:56.301Z,7.10
2024-04-21T09:39:24.861Z,7.03
2024-04-21T09:41:55.370Z,7.03
2024-04-21T09:44:23.378Z,7.10
2024-04-21T09:46:51.406Z,7.18
2024-04-21T09:49:20.072Z,7.23
2024-04-21T09:51:49.502Z,7.25
2024-04-21T09:54:20.701Z,7.23
2024-04-21T09:56:53.017Z,7.19
2024-04-21T09:59:23.623Z,7.16
2024-04-21T10:03:38.898Z,7.10
2024-04-21T10:06:07.924Z,7.10
2024-04-21T10:08:37.323Z,7.11
2024-04-21T10:11:04.888Z,7.11
2024-04-21T10:13:33.105Z,7.12
2024-04-21T10:16:00.959Z,7.13
2024-04-21T10:18:28.832Z,7.08
2024-04-21T10:20:56.668Z,7.04
2024-04-21T10:23:24.238Z,7.00
2024-04-21T10:25:53.797Z,6.98
2024-04-21T10:28:28.144Z,6.96
2024-04-21T10:31:06.160Z,6.93
2024-04-21T10:33:34.632Z,6.87
2024-04-21T10:36:02.203Z,6.80
2024-04-21T10:38:29.764Z,6.80
2024-04-21T10:40:58.481Z,6.84
2024-04-21T10:43:26.922Z,6.89
2024-04-21T10:46:01.222Z,6.89
2024-04-21T10:48:28.964Z,6.93
2024-04-21T10:50:57.582Z,6.95
2024-04-21T10:53:25.389Z,6.97
2024-04-21T10:55:55.211Z,6.94
2024-04-21T10:58:23.302Z,6.94
2024-04-21T11:00:51.152Z,6.92
2024-04-21T11:03:18.846Z,6.96
2024-04-21T11:06:01.556Z,6.98
2024-04-21T11:08:29.501Z,7.02
2024-04-21T11:10:57.576Z,7.07
2024-04-21T11:13:25.341Z,7.14
2024-04-21T11:15:53.038Z,7.17
2024-04-21T11:18:20.828Z,7.17
2024-04-21T11:20:48.750Z,7.18
2024-04-21T11:23:19.948Z,7.20
2024-04-21T11:25:47.638Z,7.22
2024-04-21T11:28:17.979Z,7.25
2024-04-21T11:30:45.819Z,7.27
2024-04-21T11:33:13.405Z,7.23
2024-04-21T11:38:09.550Z,7.05
2024-04-21T11:40:40.514Z,6.99
2024-04-21T11:43:11.530Z,6.93
2024-04-21T11:45:43.444Z,6.90
2024-04-21T11:48:11.201Z,6.87
2024-04-21T11:50:39.212Z,6.85
2024-04-21T11:53:07.689Z,6.85
2024-04-21T11:55:35.893Z,6.88
2024-04-21T11:58:05.174Z,6.88
2024-04-21T12:00:32.947Z,6.86
2024-04-21T12:03:00.679Z,6.82
2024-04-21T12:05:28.337Z,6.79
2024-04-21T12:07:55.863Z,6.77
2024-04-21T12:10:23.710Z,6.75
2024-04-21T12:12:51.383Z,6.73
2024-04-21T12:15:19.814Z,6.74
2024-04-21T12:17:47.533Z,6.77
2024-04-21T12:20:15.942Z,6.83
2024-04-21T12:22:49.773Z,6.92
2024-04-21T12:25:17.518Z,7.02
2024-04-21T12:27:45.261Z,7.16
2024-04-21T12:30:13.370Z,7.27
2024-04-21T12:32:41.004Z,7.31
2024-04-21T12:35:08.500Z,7.33
2024-04-21T12:37:36.058Z,7.36
2024-04-21T12:40:03.883Z,7.39
2024-04-21T12:42:31.384Z,7.45
2024-04-21T12:44:59.003Z,7.46
2024-04-21T12:47:26.516Z,7.53
2024-04-21T12:49:54.059Z,7.59
2024-04-21T12:52:21.739Z,7.62
2024-04-21T12:54:49.179Z,7.59
2024-04-21T12:57:16.793Z,7.59
2024-04-21T12:59:46.229Z,7.57
2024-04-21T13:02:17.990Z,7.52
2024-04-21T13:04:46.191Z,7.50
2024-04-21T13:07:13.840Z,7.49
2024-04-21T13:09:41.394Z,7.48
2024-04-21T13:12:09.087Z,7.37
2024-04-21T13:14:36.908Z,7.28
2024-04-21T13:17:04.556Z,7.25
2024-04-21T13:19:32.159Z,7.22
2024-04-21T13:22:00.441Z,7.23
2024-04-21T13:24:27.992Z,7.19
2024-04-21T13:26:55.481Z,7.17
2024-04-21T13:29:23.065Z,7.15
2024-04-21T13:31:50.703Z,7.11
2024-04-21T13:34:18.716Z,7.08
2024-04-21T13:36:46.177Z,7.07
2024-04-21T13:39:13.690Z,7.09
2024-04-21T13:41:41.230Z,7.10
2024-04-21T13:44:08.678Z,7.13
2024-04-21T13:46:36.403Z,7.17
2024-04-21T13:49:04.109Z,7.21
2024-04-21T13:51:33.234Z,7.27
2024-04-21T13:54:01.769Z,7.30
2024-04-21T13:56:29.510Z,7.33
2024-04-21T13:58:57.127Z,7.38
2024-04-21T14:01:24.943Z,7.41
2024-04-21T14:03:52.605Z,7.42
2024-04-21T14:06:21.886Z,7.41
2024-04-21T14:08:50.258Z,7.42
2024-04-21T14:11:18.161Z,7.38
2024-04-21T14:13:45.933Z,7.31
2024-04-21T14:16:13.553Z,7.26
2024-04-21T14:18:41.396Z,7.27
2024-04-21T14:21:08.938Z,7.26
2024-04-21T14:23:36.373Z,7.22
2024-04-21T14:26:04.133Z,7.17
2024-04-21T14:28:33.041Z,7.13
2024-04-21T14:31:01.265Z,7.12
2024-04-21T14:33:29.133Z,7.08
2024-04-21T14:35:56.915Z,7.09
2024-04-21T14:38:24.633Z,7.07
2024-04-21T14:40:52.268Z,7.03
2024-04-21T14:43:21.485Z,7.02
2024-04-21T14:45:49.350Z,7.01
2024-04-21T14:48:18.696Z,7.02
2024-04-21T14:51:08.171Z,7.00
2024-04-21T14:53:35.666Z,6.97
2024-04-21T14:56:06.986Z,6.95
2024-04-21T14:58:34.599Z,6.91
2024-04-21T15:01:02.430Z,6.88
2024-04-21T15:03:30.136Z,6.87
2024-04-21T15:05:57.837Z,6.86
2024-04-21T15:08:25.388Z,6.84
2024-04-21T15:10:52.890Z,6.82
2024-04-21T15:13:20.600Z,6.81
2024-04-21T15:15:48.175Z,6.80
2024-04-21T15:18:15.747Z,6.80
2024-04-21T15:20:47.065Z,6.79
2024-04-21T15:23:14.694Z,6.80
2024-04-21T15:25:44.343Z,6.78
2024-04-21T15:28:12.043Z,6.78
2024-04-21T15:30:39.615Z,6.74
2024-04-21T15:33:07.216Z,6.70
2024-04-21T15:35:34.972Z,6.68
2024-04-21T15:38:02.543Z,6.67
2024-04-21T15:40:30.111Z,6.65
2024-04-21T15:42:57.752Z,6.62
2024-04-21T15:45:25.376Z,6.59
2024-04-21T15:47:52.997Z,6.57
2024-04-21T15:50:20.531Z,6.58
2024-04-21T15:52:48.099Z,6.55
2024-04-21T15:55:16.395Z,6.53
2024-04-21T15:57:43.964Z,6.53
2024-04-21T16:00:12.283Z,6.51
2024-04-21T16:02:39.989Z,6.50
2024-04-21T16:05:08.592Z,6.46
2024-04-21T16:07:36.153Z,6.45
2024-04-21T16:10:04.222Z,6.42
2024-04-21T16:12:31.773Z,6.41
2024-04-21T16:14:59.483Z,6.41
2024-04-21T16:17:27.240Z,6.40
2024-04-21T16:19:54.848Z,6.38
2024-04-21T16:22:22.360Z,6.37
2024-04-21T16:24:49.940Z,6.37
2024-04-21T16:27:17.537Z,6.35
2024-04-21T16:29:45.215Z,6.33
2024-04-21T16:32:12.683Z,6.32
2024-04-21T16:34:40.639Z,6.33
2024-04-21T16:37:09.663Z,6.32
2024-04-21T16:39:37.619Z,6.31
2024-04-21T16:42:05.589Z,6.31
2024-04-21T16:44:33.271Z,6.31
2024-04-21T16:47:01.826Z,6.32
2024-04-21T16:49:29.829Z,6.31
2024-04-21T16:51:58.362Z,6.32
2024-04-21T16:54:26.875Z,6.32
2024-04-21T16:57:06.933Z,6.30
2024-04-21T16:59:42.986Z,6.29
2024-04-21T17:02:10.726Z,6.28
2024-04-21T17:04:41.663Z,6.26
2024-04-21T17:07:10.706Z,6.24
2024-04-21T17:09:38.856Z,6.21
2024-04-21T17:12:06.638Z,6.21
2024-04-21T17:14:34.058Z,6.21
2024-04-21T17:17:01.670Z,6.21
2024-04-21T17:19:30.311Z,6.19
2024-04-21T17:21:57.989Z,6.18
2024-04-21T17:24:25.501Z,6.18
2024-04-21T17:26:53.076Z,6.16
2024-04-21T17:29:21.285Z,6.15
2024-04-21T17:31:48.799Z,6.14
2024-04-21T17:34:19.421Z,6.13
2024-04-21T17:36:47.552Z,6.10
2024-04-21T17:39:15.038Z,6.07
2024-04-21T17:41:42.558Z,6.07
2024-04-21T17:44:10.097Z,6.05
2024-04-21T17:46:38.330Z,6.05
2024-04-21T17:49:06.643Z,6.04
2024-04-21T17:51:34.439Z,6.03
2024-04-21T17:54:01.980Z,6.04
2024-04-21T17:56:29.583Z,6.05
2024-04-21T17:58:57.363Z,6.05
2024-04-21T18:01:27.535Z,6.06
2024-04-21T18:03:55.168Z,6.05
2024-04-21T18:06:22.829Z,6.05
2024-04-21T18:08:50.465Z,6.04
2024-04-21T18:11:21.109Z,6.04
2024-04-21T18:13:48.691Z,6.04
2024-04-21T18:16:16.384Z,6.03
2024-04-21T18:18:44.111Z,6.04
2024-04-21T18:21:12.588Z,6.03
2024-04-21T18:23:40.255Z,6.02
2024-04-21T18:26:07.918Z,6.02
2024-04-21T18:28:35.715Z,6.03
2024-04-21T18:31:03.563Z,6.03
2024-04-21T18:33:31.683Z,6.03
2024-04-21T18:35:59.628Z,6.02
2024-04-21T18:38:27.250Z,6.02
2024-04-21T18:40:56.386Z,6.00
2024-04-21T18:43:23.974Z,6.00
2024-04-21T18:45:51.472Z,6.03
2024-04-21T18:48:19.045Z,6.03
2024-04-21T18:50:47.493Z,6.04
2024-04-21T18:53:17.144Z,6.05
2024-04-21T18:55:44.720Z,6.05
2024-04-21T18:58:13.175Z,6.04
2024-04-21T19:00:40.990Z,6.03
2024-04-21T19:03:08.692Z,6.01
2024-04-21T19:05:42.595Z,5.99
2024-04-21T19:08:10.768Z,5.99
2024-04-21T19:10:39.325Z,5.97
2024-04-21T19:13:07.918Z,5.96
2024-04-21T19:15:35.845Z,5.94
2024-04-21T19:18:03.784Z,5.93
2024-04-21T19:20:31.795Z,5.92
2024-04-21T19:22:59.541Z,5.91
2024-04-21T19:25:28.459Z,5.91
2024-04-21T19:27:56.271Z,5.89
2024-04-21T19:30:23.814Z,5.88
2024-04-21T19:32:51.350Z,5.85
2024-04-21T19:35:18.937Z,5.83
2024-04-21T19:37:46.415Z,5.80
2024-04-21T19:40:14.026Z,5.77
2024-04-21T19:42:44.158Z,5.74
2024-04-21T19:45:11.742Z,5.72
2024-04-21T19:47:39.331Z,5.69
2024-04-21T19:50:07.214Z,5.69
2024-04-21T19:52:38.874Z,5.67
2024-04-21T19:55:07.767Z,5.68
2024-04-21T19:57:38.867Z,5.68
2024-04-21T20:00:07.968Z,5.67
2024-04-21T20:02:36.499Z,5.65
2024-04-21T20:05:05.136Z,5.65
2024-04-21T20:07:36.445Z,5.63
2024-04-21T20:10:05.105Z,5.63
2024-04-21T20:12:33.031Z,5.62
2024-04-21T20:15:19.239Z,5.61
2024-04-21T20:18:05.268Z,5.61
2024-04-21T20:20:33.016Z,5.59
2024-04-21T20:23:00.812Z,5.59
2024-04-21T20:25:28.409Z,5.59
2024-04-21T20:27:55.843Z,5.58
2024-04-21T20:30:23.363Z,5.58
2024-04-21T20:32:50.794Z,5.59
2024-04-21T20:35:18.707Z,5.59
2024-04-21T20:37:46.227Z,5.59
2024-04-21T20:40:14.399Z,5.59
2024-04-21T20:42:41.855Z,5.60
2024-04-21T20:45:09.306Z,5.59
2024-04-21T20:47:36.883Z,5.58
2024-04-21T20:50:04.648Z,5.58
2024-04-21T20:52:34.287Z,5.57
2024-04-21T20:55:01.796Z,5.56
2024-04-21T20:57:31.541Z,5.56
2024-04-21T20:59:59.208Z,5.56
2024-04-21T21:02:26.905Z,5.55
2024-04-21T21:04:54.621Z,5.54
2024-04-21T21:07:22.295Z,5.54
2024-04-21T21:09:49.918Z,5.55
2024-04-21T21:12:17.339Z,5.55
2024-04-21T21:14:44.915Z,5.55
2024-04-21T21:17:12.529Z,5.55
2024-04-21T21:19:40.232Z,5.55
2024-04-21T21:22:07.825Z,5.53
2024-04-21T21:24:35.363Z,5.53
2024-04-21T21:27:02.991Z,5.52
2024-04-21T21:29:30.524Z,5.51
2024-04-21T21:31:58.084Z,5.50
2024-04-21T21:34:26.198Z,5.50
2024-04-21T21:36:53.700Z,5.49
2024-04-21T21:39:21.221Z,5.50
2024-04-21T21:41:48.786Z,5.50
2024-04-21T21:44:16.247Z,5.49
2024-04-21T21:46:43.784Z,5.48
2024-04-21T21:49:11.338Z,5.49
2024-04-21T21:51:39.098Z,5.48
2024-04-21T21:54:06.576Z,5.48
2024-04-21T21:56:34.007Z,5.47
2024-04-21T21:59:01.567Z,5.46
2024-04-21T22:01:29.320Z,5.45
2024-04-21T22:03:57.016Z,5.45
2024-04-21T22:06:24.507Z,5.44
2024-04-21T22:08:52.088Z,5.44
2024-04-21T22:11:19.611Z,5.45
2024-04-21T22:13:48.504Z,5.45
2024-04-21T22:16:37.021Z,5.46
2024-04-21T22:19:05.054Z,5.46
2024-04-21T22:21:32.575Z,5.46
2024-04-21T22:24:00.141Z,5.46
2024-04-21T22:26:27.605Z,5.46
2024-04-21T22:28:55.288Z,5.45
2024-04-21T22:31:23.556Z,5.44
2024-04-21T22:33:51.043Z,5.42
2024-04-21T22:36:18.580Z,5.43
2024-04-21T22:38:46.074Z,5.42
2024-04-21T22:41:13.612Z,5.42
2024-04-21T22:43:41.147Z,5.42
2024-04-21T22:46:09.677Z,5.43
2024-04-21T22:48:38.266Z,5.44
2024-04-21T22:51:06.297Z,5.44
2024-04-21T22:53:34.514Z,5.44
2024-04-21T22:56:02.206Z,5.45
2024-04-21T22:58:30.036Z,5.45
2024-04-21T23:00:57.827Z,5.45
2024-04-21T23:03:25.610Z,5.44
2024-04-21T23:06:00.125Z,5.45
2024-04-21T23:08:39.623Z,5.45
2024-04-21T23:11:07.261Z,5.44
2024-04-21T23:13:34.834Z,5.44
2024-04-21T23:16:05.895Z,5.43
2024-04-21T23:18:33.533Z,5.42
2024-04-21T23:21:01.082Z,5.42
2024-04-21T23:23:28.614Z,5.42
2024-04-21T23:25:56.150Z,5.41
2024-04-21T23:28:23.807Z,5.41
2024-04-21T23:30:51.320Z,5.41
2024-04-21T23:33:18.916Z,5.41
2024-04-21T23:35:46.618Z,5.40
2024-04-21T23:38:14.196Z,5.41
2024-04-21T23:40:41.763Z,5.41
2024-04-21T23:43:09.340Z,5.41
2024-04-21T23:45:40.556Z,5.40
2024-04-21T23:48:08.254Z,5.41
2024-04-21T23:50:35.858Z,5.42
2024-04-21T23:53:03.456Z,5.43
2024-04-21T23:55:31.008Z,5.44
2024-04-21T23:57:58.537Z,5.45
